Time;durP1;ratioP1;P1;durP2;ratioP2;P2;SDS_P1;SDS_P2;PMS_P1;PMS_P2;Temp;Humidity;BMP_temperature;BMP_pressure;BME280_temperature;BME280_humidity;BME280_pressure;Samples;Min_cycle;Max_cycle;Signal;HPM_P1;HPM_P2
2023/04/20 00:01:35;;;;;;;3.30;2.65;;;6.30;96.10;;;;;;5135908;27;20241;-68
2023/04/20 00:04:03;;;;;;;3.60;2.83;;;6.40;96.20;;;;;;5136278;27;20648;-68
2023/04/20 00:06:31;;;;;;;4.05;3.28;;;6.40;96.30;;;;;;5135949;27;20564;-68
2023/04/20 00:08:59;;;;;;;4.35;2.97;;;6.40;96.00;;;;;;5135550;27;20183;-67
2023/04/20 00:11:27;;;;;;;5.40;3.20;;;6.40;95.70;;;;;;5135559;27;20188;-68
2023/04/20 00:13:57;;;;;;;5.20;3.35;;;6.40;96.00;;;;;;5136218;27;20191;-68
2023/04/20 00:16:25;;;;;;;4.10;2.95;;;6.40;96.10;;;;;;5135348;27;20660;-68
2023/04/20 00:18:52;;;;;;;4.38;3.22;;;6.40;96.20;;;;;;5136191;27;20668;-67
2023/04/20 00:21:22;;;;;;;4.40;3.13;;;6.40;96.40;;;;;;5135222;27;20583;-67
2023/04/20 00:23:50;;;;;;;4.25;3.28;;;6.30;96.30;;;;;;5135720;27;20263;-68
2023/04/20 00:26:18;;;;;;;5.25;3.25;;;6.30;96.40;;;;;;5135403;27;20184;-68
2023/04/20 00:28:46;;;;;;;10.00;3.10;;;6.30;96.60;;;;;;5135757;27;20229;-68
2023/04/20 00:31:15;;;;;;;4.30;2.88;;;6.30;96.70;;;;;;5135279;27;20180;-68
2023/04/20 00:33:43;;;;;;;4.80;3.83;;;6.40;96.80;;;;;;5135656;27;20746;-68
2023/04/20 00:36:10;;;;;;;3.95;3.30;;;6.40;96.70;;;;;;5135084;27;20212;-68
2023/04/20 00:38:38;;;;;;;5.35;3.50;;;6.40;96.60;;;;;;5135406;27;20191;-68
2023/04/20 00:41:06;;;;;;;5.00;3.90;;;6.30;96.70;;;;;;5134657;27;20191;-68
2023/04/20 00:43:34;;;;;;;4.95;3.50;;;6.30;96.80;;;;;;5135253;27;20217;-68
2023/04/20 00:46:05;;;;;;;6.45;4.05;;;6.30;97.00;;;;;;5134849;27;20645;-68
2023/04/20 00:48:34;;;;;;;4.50;3.70;;;6.30;97.10;;;;;;5135545;27;20672;-68
2023/04/20 00:51:02;;;;;;;4.47;3.72;;;6.30;97.20;;;;;;5134519;27;20176;-68
2023/04/20 00:53:31;;;;;;;3.95;3.10;;;6.30;97.30;;;;;;5135049;27;20190;-68
2023/04/20 00:55:59;;;;;;;8.18;4.30;;;6.30;97.20;;;;;;5134673;27;20577;-67
2023/04/20 00:58:26;;;;;;;4.07;3.22;;;6.30;97.20;;;;;;5135059;27;20699;-68
2023/04/20 01:00:54;;;;;;;4.00;3.00;;;6.40;97.10;;;;;;5134369;27;20211;-68
2023/04/20 01:03:23;;;;;;;5.15;4.30;;;6.40;97.00;;;;;;5134666;27;20195;-68
2023/04/20 01:05:52;;;;;;;5.25;4.20;;;6.40;96.70;;;;;;5134543;27;20278;-68
2023/04/20 01:08:20;;;;;;;6.03;4.80;;;6.40;96.80;;;;;;5135022;27;20188;-67
2023/04/20 01:10:47;;;;;;;5.13;3.35;;;6.40;96.90;;;;;;5134214;27;20275;-68
2023/04/20 01:13:15;;;;;;;6.70;4.47;;;6.40;96.90;;;;;;5134755;27;20188;-68
2023/04/20 01:15:42;;;;;;;5.82;4.35;;;6.50;96.90;;;;;;5134216;27;20215;-68
2023/04/20 01:18:14;;;;;;;5.28;3.97;;;6.50;97.00;;;;;;5134781;27;20192;-68
2023/04/20 01:20:42;;;;;;;5.30;3.47;;;6.50;97.00;;;;;;5134395;27;20638;-68
2023/04/20 01:23:14;;;;;;;5.10;3.95;;;6.50;97.00;;;;;;5134863;27;20222;-67
2023/04/20 01:25:42;;;;;;;5.53;3.88;;;6.50;97.00;;;;;;5134700;27;20734;-68
2023/04/20 01:28:10;;;;;;;6.03;4.10;;;6.50;96.80;;;;;;5134860;27;20270;-68
2023/04/20 01:30:38;;;;;;;4.55;3.30;;;6.40;96.30;;;;;;5134170;27;20535;-68
2023/04/20 01:33:08;;;;;;;3.97;3.47;;;6.40;96.10;;;;;;5134312;27;20192;-68
2023/04/20 01:35:35;;;;;;;4.80;3.83;;;6.50;95.90;;;;;;5134241;27;20592;-68
2023/04/20 01:38:02;;;;;;;4.70;3.85;;;6.50;96.20;;;;;;5134468;27;20183;-67
2023/04/20 01:40:31;;;;;;;6.13;4.57;;;6.50;96.00;;;;;;5133944;27;20323;-67
2023/04/20 01:43:03;;;;;;;4.85;3.15;;;6.40;96.10;;;;;;5134454;27;20195;-68
2023/04/20 01:45:30;;;;;;;4.47;3.50;;;6.50;96.40;;;;;;5133749;27;20183;-68
2023/04/20 01:47:58;;;;;;;6.10;3.80;;;6.50;96.60;;;;;;5134383;27;20188;-68
2023/04/20 01:50:25;;;;;;;4.65;3.42;;;6.50;96.80;;;;;;5133723;27;20229;-68
2023/04/20 01:52:52;;;;;;;4.82;3.50;;;6.40;96.60;;;;;;5133939;27;20195;-68
2023/04/20 01:55:20;;;;;;;5.05;3.85;;;6.40;96.70;;;;;;5134035;27;20191;-68
2023/04/20 01:57:54;;;;;;;4.85;4.05;;;6.50;96.90;;;;;;5133884;27;20756;-68
2023/04/20 02:00:21;;;;;;;4.72;3.65;;;6.50;96.70;;;;;;5133441;27;20223;-68
2023/04/20 02:02:51;;;;;;;4.40;3.35;;;6.40;96.50;;;;;;5133927;27;20194;-68
2023/04/20 02:05:19;;;;;;;4.60;4.05;;;6.40;96.70;;;;;;5113353;28;20192;-68
2023/04/20 02:07:48;;;;;;;4.93;4.15;;;6.40;96.80;;;;;;5113193;28;20284;-68
2023/04/20 02:10:16;;;;;;;6.95;3.92;;;6.40;96.80;;;;;;5132662;27;20588;-67
2023/04/20 02:12:43;;;;;;;5.78;4.18;;;6.40;96.60;;;;;;5133812;27;20236;-67
2023/04/20 02:15:12;;;;;;;7.15;4.75;;;6.50;96.70;;;;;;5132524;27;20234;-68
2023/04/20 02:17:42;;;;;;;5.88;4.10;;;6.40;96.70;;;;;;5133864;27;20216;-68
2023/04/20 02:20:12;;;;;;;4.82;3.88;;;6.40;96.50;;;;;;5133393;27;20188;-68
2023/04/20 02:22:40;;;;;;;4.88;3.63;;;6.50;96.50;;;;;;5113205;28;20184;-68
2023/04/20 02:25:10;;;;;;;4.38;3.90;;;6.40;96.40;;;;;;5130211;27;20184;-68
2023/04/20 02:27:37;;;;;;;6.43;4.80;;;6.40;96.50;;;;;;5133737;27;20238;-68
2023/04/20 02:30:05;;;;;;;6.95;4.75;;;6.40;96.70;;;;;;5132880;27;20184;-68
2023/04/20 02:32:39;;;;;;;5.50;4.15;;;6.40;96.90;;;;;;5133485;27;20240;-68
2023/04/20 02:35:07;;;;;;;5.18;4.20;;;6.40;97.20;;;;;;5134124;27;20246;-68
2023/04/20 02:37:35;;;;;;;6.72;4.70;;;6.40;97.50;;;;;;5133058;27;20208;-68
2023/04/20 02:40:03;;;;;;;6.25;4.80;;;6.40;97.70;;;;;;5132855;28;20251;-68
2023/04/20 02:42:31;;;;;;;4.63;4.13;;;6.40;97.70;;;;;;5133504;28;20230;-68
2023/04/20 02:44:58;;;;;;;7.28;4.38;;;6.40;97.90;;;;;;5133162;28;20187;-68
2023/04/20 02:47:25;;;;;;;6.35;4.40;;;6.40;97.90;;;;;;5112729;28;20196;-67
2023/04/20 02:49:55;;;;;;;5.45;4.20;;;6.40;97.90;;;;;;5112946;28;20662;-68
2023/04/20 02:52:23;;;;;;;5.90;4.53;;;6.40;97.80;;;;;;5133366;28;20188;-68
2023/04/20 02:54:53;;;;;;;5.78;4.15;;;6.50;97.60;;;;;;5132936;28;20184;-68
2023/04/20 02:57:20;;;;;;;5.20;3.88;;;6.50;97.50;;;;;;5132797;28;20289;-68
2023/04/20 02:59:47;;;;;;;5.47;3.85;;;6.50;97.40;;;;;;5133379;28;20534;-68
2023/04/20 03:02:14;;;;;;;4.90;3.85;;;6.50;97.20;;;;;;5132714;28;20656;-68
2023/04/20 03:04:47;;;;;;;7.20;4.25;;;6.40;97.20;;;;;;5133340;28;20191;-67
2023/04/20 03:07:17;;;;;;;5.93;3.92;;;6.50;97.10;;;;;;5132829;28;20711;-68
2023/04/20 03:09:46;;;;;;;5.30;4.30;;;6.50;97.10;;;;;;5132901;28;20191;-68
2023/04/20 03:12:13;;;;;;;8.52;5.20;;;6.50;96.90;;;;;;5132880;28;20188;-68
2023/04/20 03:14:48;;;;;;;5.78;3.83;;;6.40;96.40;;;;;;5132857;28;20215;-68
2023/04/20 03:17:16;;;;;;;8.15;4.85;;;6.40;96.00;;;;;;5132465;28;20214;-68
2023/04/20 03:19:43;;;;;;;5.63;3.95;;;6.40;95.50;;;;;;5133294;28;20614;-68
2023/04/20 03:22:10;;;;;;;5.97;4.90;;;6.40;95.50;;;;;;5132709;28;20188;-68
2023/04/20 03:24:40;;;;;;;6.97;4.82;;;6.30;95.50;;;;;;5132957;28;20256;-68
2023/04/20 03:27:10;;;;;;;7.40;5.45;;;6.30;95.40;;;;;;5134460;27;20192;-68
2023/04/20 03:29:38;;;;;;;6.18;4.35;;;6.30;95.40;;;;;;5137131;27;20180;-68
2023/04/20 03:32:05;;;;;;;7.50;5.13;;;6.30;95.40;;;;;;5136351;27;20241;-69
2023/04/20 03:34:32;;;;;;;7.20;4.72;;;6.30;95.50;;;;;;5136170;27;20188;-68
2023/04/20 03:37:00;;;;;;;6.43;4.90;;;6.30;95.70;;;;;;5136261;27;20207;-68
2023/04/20 03:39:28;;;;;;;9.05;5.72;;;6.30;95.70;;;;;;5136782;27;20249;-67
2023/04/20 03:41:58;;;;;;;8.57;5.40;;;6.30;95.70;;;;;;5136410;27;20207;-68
2023/04/20 03:44:25;;;;;;;7.63;5.30;;;6.30;95.50;;;;;;5136722;27;20210;-68
2023/04/20 03:46:57;;;;;;;6.25;4.63;;;6.20;95.70;;;;;;5136331;27;20188;-68
2023/04/20 03:49:26;;;;;;;6.38;4.72;;;6.20;95.80;;;;;;5136334;27;20586;-68
2023/04/20 03:51:53;;;;;;;6.65;5.32;;;6.30;95.70;;;;;;5135862;27;20187;-68
2023/04/20 03:54:21;;;;;;;8.05;5.55;;;6.30;95.80;;;;;;5136286;27;20213;-68
2023/04/20 03:56:59;;;;;;;7.43;5.25;;;6.30;95.70;;;;;;5136437;27;20681;-68
2023/04/20 03:59:28;;;;;;;6.45;5.03;;;6.30;95.50;;;;;;5135993;27;20242;-68
2023/04/20 04:02:00;;;;;;;6.63;5.15;;;6.20;95.40;;;;;;5136600;27;20300;-68
2023/04/20 04:04:28;;;;;;;7.32;5.82;;;6.20;95.50;;;;;;5136027;27;20211;-68
2023/04/20 04:06:55;;;;;;;6.50;5.00;;;6.20;95.50;;;;;;5136078;27;20200;-68
2023/04/20 04:09:25;;;;;;;6.70;5.88;;;6.20;95.30;;;;;;5135941;27;20184;-68
2023/04/20 04:11:52;;;;;;;7.65;6.30;;;6.20;95.20;;;;;;5135926;27;20184;-67
2023/04/20 04:14:21;;;;;;;7.65;5.25;;;6.20;95.20;;;;;;5135524;27;20355;-67
2023/04/20 04:16:49;;;;;;;6.28;5.10;;;6.20;95.70;;;;;;5135713;27;20258;-68
2023/04/20 04:19:17;;;;;;;6.00;4.10;;;6.20;95.40;;;;;;5115524;28;20184;-68
2023/04/20 04:21:45;;;;;;;10.82;5.20;;;6.20;95.30;;;;;;5115557;28;20266;-68
2023/04/20 04:24:13;;;;;;;9.82;5.25;;;6.20;95.20;;;;;;5134544;27;20187;-68
2023/04/20 04:26:40;;;;;;;7.70;4.60;;;6.20;95.30;;;;;;5136111;27;20275;-68
2023/04/20 04:29:09;;;;;;;7.03;4.93;;;6.20;95.30;;;;;;5135588;27;20237;-68
2023/04/20 04:31:38;;;;;;;7.03;5.30;;;6.20;95.40;;;;;;5135863;27;20260;-68
2023/04/20 04:34:06;;;;;;;6.70;5.80;;;6.20;95.50;;;;;;5135459;27;20701;-68
2023/04/20 04:36:33;;;;;;;7.43;5.72;;;6.20;95.60;;;;;;5134906;27;20180;-68
2023/04/20 04:39:02;;;;;;;5.30;3.83;;;6.20;95.70;;;;;;5134071;27;20190;-68
2023/04/20 04:41:31;;;;;;;7.57;5.13;;;6.20;95.60;;;;;;5135629;27;20201;-68
2023/04/20 04:43:59;;;;;;;7.28;5.20;;;6.20;95.40;;;;;;5135194;27;20215;-67
2023/04/20 04:46:27;;;;;;;6.07;4.75;;;6.30;95.50;;;;;;5127546;27;20562;-68
2023/04/20 04:48:59;;;;;;;6.65;5.05;;;6.30;95.50;;;;;;5122695;27;20188;-68
2023/04/20 04:51:30;;;;;;;7.63;5.40;;;6.30;95.60;;;;;;5124648;27;20198;-68
2023/04/20 04:53:57;;;;;;;7.32;5.35;;;6.30;95.50;;;;;;5114454;27;20560;-68
2023/04/20 04:56:25;;;;;;;8.60;5.95;;;6.30;95.70;;;;;;5131512;27;20549;-67
2023/04/20 04:58:52;;;;;;;6.22;5.15;;;6.30;95.60;;;;;;5121294;27;20216;-67
2023/04/20 05:01:19;;;;;;;6.53;5.22;;;6.30;95.80;;;;;;5112861;28;20208;-67
2023/04/20 05:03:51;;;;;;;9.13;4.70;;;6.30;95.70;;;;;;5126888;27;20184;-69
2023/04/20 05:06:20;;;;;;;6.10;5.35;;;6.40;95.70;;;;;;5124953;27;20663;-68
2023/04/20 05:08:47;;;;;;;8.23;5.95;;;6.40;95.70;;;;;;5132514;27;20183;-68
2023/04/20 05:11:14;;;;;;;6.25;4.72;;;6.40;95.90;;;;;;5133948;27;20223;-68
2023/04/20 05:13:41;;;;;;;7.07;5.50;;;6.40;96.00;;;;;;5131937;27;20184;-69
2023/04/20 05:16:08;;;;;;;6.65;5.43;;;6.40;96.20;;;;;;5131984;27;20652;-68
2023/04/20 05:18:38;;;;;;;7.30;5.95;;;6.40;96.10;;;;;;5133179;27;20219;-68
2023/04/20 05:21:06;;;;;;;6.63;4.82;;;6.40;96.00;;;;;;5131850;27;20195;-68
2023/04/20 05:23:35;;;;;;;7.57;4.72;;;6.50;96.20;;;;;;5129204;27;20192;-68
2023/04/20 05:26:02;;;;;;;7.30;4.68;;;6.50;96.30;;;;;;5122360;27;20264;-68
2023/04/20 05:28:29;;;;;;;8.57;5.72;;;6.50;96.40;;;;;;5120672;27;20192;-68
2023/04/20 05:30:57;;;;;;;6.68;4.63;;;6.60;96.70;;;;;;5132244;27;20195;-68
2023/04/20 05:33:24;;;;;;;6.55;5.78;;;6.60;96.20;;;;;;5114974;27;20196;-68
2023/04/20 05:35:56;;;;;;;8.40;5.80;;;6.60;96.10;;;;;;5129136;27;20183;-68
2023/04/20 05:38:28;;;;;;;5.03;4.13;;;6.60;96.20;;;;;;5120687;27;20219;-68
2023/04/20 05:40:56;;;;;;;6.68;5.20;;;6.70;96.00;;;;;;5116727;27;20280;-68
2023/04/20 05:43:24;;;;;;;4.60;3.25;;;6.70;96.00;;;;;;5130259;27;20187;-68
2023/04/20 05:45:51;;;;;;;5.32;4.10;;;6.70;96.10;;;;;;5126690;27;20647;-67
2023/04/20 05:48:18;;;;;;;5.50;3.38;;;6.70;96.00;;;;;;5112545;27;20253;-68
2023/04/20 05:50:45;;;;;;;4.40;3.40;;;6.70;95.40;;;;;;5116830;27;20673;-68
2023/04/20 05:53:15;;;;;;;3.90;3.00;;;6.70;95.30;;;;;;5112841;28;20188;-69
2023/04/20 05:55:42;;;;;;;5.53;3.67;;;6.70;95.20;;;;;;5129373;27;20634;-68
2023/04/20 05:58:11;;;;;;;5.03;3.72;;;6.70;95.20;;;;;;5131683;27;20768;-69
2023/04/20 06:00:39;;;;;;;4.07;3.17;;;6.70;95.00;;;;;;5132722;27;20188;-68
2023/04/20 06:03:06;;;;;;;4.35;3.60;;;6.70;95.00;;;;;;5134133;27;20194;-68
2023/04/20 06:05:38;;;;;;;5.30;3.80;;;6.70;95.00;;;;;;5133769;27;20184;-68
2023/04/20 06:08:08;;;;;;;4.85;3.28;;;6.70;95.40;;;;;;5134044;27;20245;-69
2023/04/20 06:10:38;;;;;;;4.07;3.15;;;6.70;94.90;;;;;;5132619;27;20223;-68
2023/04/20 06:13:11;;;;;;;4.28;3.00;;;6.70;94.50;;;;;;5130757;27;20187;-69
2023/04/20 06:15:39;;;;;;;4.57;3.08;;;6.70;94.60;;;;;;5132093;27;20216;-68
2023/04/20 06:18:11;;;;;;;3.70;2.88;;;6.70;94.60;;;;;;5133006;27;20215;-68
2023/04/20 06:20:39;;;;;;;4.22;3.25;;;6.80;94.50;;;;;;5133199;27;20583;-68
2023/04/20 06:23:06;;;;;;;6.13;3.92;;;6.70;94.50;;;;;;5133279;27;20200;-68
2023/04/20 06:25:36;;;;;;;3.67;3.10;;;6.80;94.80;;;;;;5133457;27;20195;-68
2023/04/20 06:28:09;;;;;;;3.78;3.38;;;6.80;94.70;;;;;;5132887;27;20650;-68
2023/04/20 06:30:40;;;;;;;4.35;3.20;;;6.90;94.70;;;;;;5127534;27;20710;-69
2023/04/20 06:33:08;;;;;;;5.53;3.10;;;7.00;94.80;;;;;;5132988;27;20601;-68
2023/04/20 06:35:38;;;;;;;3.97;3.40;;;7.00;94.60;;;;;;5132792;27;20191;-68
2023/04/20 06:38:10;;;;;;;3.42;2.80;;;7.10;94.60;;;;;;5133185;27;20207;-68
2023/04/20 06:40:37;;;;;;;4.20;3.15;;;7.10;94.50;;;;;;5132977;28;20291;-68
2023/04/20 06:43:18;;;;;;;4.20;3.15;;;7.10;94.30;;;;;;5133057;28;20271;-68
2023/04/20 06:45:47;;;;;;;3.78;2.65;;;7.10;94.00;;;;;;5133698;28;20270;-68
2023/04/20 06:48:16;;;;;;;3.53;2.60;;;7.20;93.50;;;;;;5133220;28;20215;-68
2023/04/20 06:50:48;;;;;;;5.03;2.78;;;7.20;93.60;;;;;;5133880;28;20231;-68
2023/04/20 06:53:16;;;;;;;3.35;2.38;;;7.20;93.50;;;;;;5133389;28;20701;-68
2023/04/20 06:55:44;;;;;;;4.75;2.42;;;7.20;93.50;;;;;;5133675;28;20198;-68
2023/04/20 06:58:16;;;;;;;4.13;2.50;;;7.30;92.70;;;;;;5133850;28;20227;-68
2023/04/20 07:00:53;;;;;;;2.83;2.00;;;7.30;92.50;;;;;;5133584;27;20227;-68
2023/04/20 07:03:23;;;;;;;3.20;2.47;;;7.30;92.30;;;;;;5137811;27;20664;-68
2023/04/20 07:06:00;;;;;;;3.60;2.35;;;7.30;92.40;;;;;;5137712;27;20530;-67
2023/04/20 07:08:30;;;;;;;3.88;1.90;;;7.30;92.20;;;;;;5137889;27;20530;-68
2023/04/20 07:10:57;;;;;;;3.22;2.30;;;7.30;92.30;;;;;;5137453;27;20191;-68
2023/04/20 07:13:24;;;;;;;3.00;2.33;;;7.40;92.50;;;;;;5137856;27;20187;-68
2023/04/20 07:15:53;;;;;;;3.05;2.30;;;7.50;92.70;;;;;;5137577;27;20308;-68
2023/04/20 07:18:22;;;;;;;3.42;2.13;;;7.60;92.10;;;;;;5137593;27;20310;-68
2023/04/20 07:20:55;;;;;;;3.72;2.55;;;7.70;91.60;;;;;;5137188;27;20245;-68
2023/04/20 07:23:23;;;;;;;3.13;2.45;;;7.70;91.70;;;;;;5137394;27;20188;-68
2023/04/20 07:25:54;;;;;;;3.55;2.55;;;7.70;92.10;;;;;;5137414;27;20240;-68
2023/04/20 07:28:21;;;;;;;3.45;2.15;;;7.80;92.50;;;;;;5136959;27;20187;-68
2023/04/20 07:30:49;;;;;;;3.13;2.20;;;7.90;92.20;;;;;;5137181;27;20188;-68
2023/04/20 07:33:20;;;;;;;3.15;2.25;;;7.90;91.60;;;;;;5137651;27;20191;-68
2023/04/20 07:35:49;;;;;;;4.05;2.70;;;7.90;91.50;;;;;;5137148;27;20221;-68
2023/04/20 07:38:22;;;;;;;6.22;2.50;;;7.90;91.40;;;;;;5136898;27;20289;-68
2023/04/20 07:40:53;;;;;;;3.90;2.60;;;7.90;90.80;;;;;;5137183;27;20234;-68
2023/04/20 07:43:22;;;;;;;4.13;2.90;;;8.00;90.90;;;;;;5137246;27;20188;-68
2023/04/20 07:45:50;;;;;;;3.05;2.05;;;8.00;90.50;;;;;;5137396;27;20187;-68
2023/04/20 07:48:24;;;;;;;4.03;2.20;;;8.00;90.00;;;;;;5137187;27;20191;-68
2023/04/20 07:50:56;;;;;;;4.68;2.55;;;8.10;89.00;;;;;;5136829;27;20188;-68
2023/04/20 07:53:23;;;;;;;4.13;3.00;;;8.10;89.40;;;;;;5136949;27;20279;-68
2023/04/20 07:55:53;;;;;;;3.72;2.92;;;8.10;90.10;;;;;;5136372;27;20222;-68
2023/04/20 07:58:20;;;;;;;3.42;2.42;;;8.00;90.20;;;;;;5136832;27;20307;-68
2023/04/20 08:00:52;;;;;;;3.55;2.55;;;8.00;90.30;;;;;;5136490;27;20192;-68
2023/04/20 08:03:28;;;;;;;3.85;3.15;;;8.00;90.30;;;;;;5136455;27;20215;-68
2023/04/20 08:06:06;;;;;;;4.07;2.92;;;8.10;90.30;;;;;;5136705;27;20222;-68
2023/04/20 08:08:40;;;;;;;4.15;2.95;;;8.20;89.80;;;;;;5136800;27;20240;-68
2023/04/20 08:11:07;;;;;;;4.05;2.72;;;8.20;89.40;;;;;;5136437;27;20187;-68
2023/04/20 08:13:36;;;;;;;4.00;2.45;;;8.20;90.30;;;;;;5135516;27;20529;-68
2023/04/20 08:16:03;;;;;;;4.07;2.42;;;8.20;90.40;;;;;;5136228;27;20224;-68
2023/04/20 08:18:32;;;;;;;3.60;2.80;;;8.20;90.10;;;;;;5136641;27;20219;-68
2023/04/20 08:21:07;;;;;;;3.22;2.80;;;8.30;89.10;;;;;;5136775;27;20188;-68
2023/04/20 08:23:35;;;;;;;4.85;3.45;;;8.30;90.20;;;;;;5136433;27;20720;-68
2023/04/20 08:26:04;;;;;;;4.68;3.35;;;8.30;90.00;;;;;;5136733;27;20219;-68
2023/04/20 08:28:33;;;;;;;4.05;2.58;;;8.30;88.50;;;;;;5136250;27;20242;-68
2023/04/20 08:31:08;;;;;;;4.55;3.58;;;8.30;88.60;;;;;;5136362;27;20609;-68
2023/04/20 08:33:36;;;;;;;4.88;3.25;;;8.20;88.30;;;;;;5136420;27;20271;-68
2023/04/20 08:36:05;;;;;;;6.60;3.08;;;8.30;89.00;;;;;;5136291;27;20286;-68
2023/04/20 08:38:32;;;;;;;4.15;2.80;;;8.30;87.70;;;;;;5136123;27;20298;-68
2023/04/20 08:41:02;;;;;;;6.25;3.33;;;8.30;88.30;;;;;;5135789;27;20256;-68
2023/04/20 08:43:29;;;;;;;5.57;4.03;;;8.30;88.80;;;;;;5136191;27;20199;-68
2023/04/20 08:45:58;;;;;;;5.63;3.53;;;8.40;88.70;;;;;;5136207;27;20192;-68
2023/04/20 08:48:34;;;;;;;4.50;3.20;;;8.50;88.80;;;;;;5135678;27;20205;-68
2023/04/20 08:51:06;;;;;;;4.10;3.35;;;8.50;89.20;;;;;;5136052;27;20600;-68
2023/04/20 08:53:35;;;;;;;4.80;3.53;;;8.50;88.20;;;;;;5136037;27;20232;-68
2023/04/20 08:56:04;;;;;;;5.13;3.85;;;8.60;88.20;;;;;;5135792;27;20869;-69
2023/04/20 08:58:32;;;;;;;4.18;3.08;;;8.70;88.70;;;;;;5135669;27;20251;-68
2023/04/20 09:01:01;;;;;;;5.20;3.58;;;8.90;88.80;;;;;;5135447;27;20242;-68
2023/04/20 09:03:36;;;;;;;4.32;3.92;;;9.00;87.60;;;;;;5135515;27;20223;-68
2023/04/20 09:06:06;;;;;;;5.40;3.30;;;9.10;87.50;;;;;;5135687;27;20696;-69
2023/04/20 09:08:41;;;;;;;4.72;3.42;;;9.10;86.10;;;;;;5135892;27;20213;-68
2023/04/20 09:11:21;;;;;;;3.78;3.25;;;9.00;84.10;;;;;;5135516;27;20697;-68
2023/04/20 09:13:59;;;;;;;4.85;3.25;;;8.90;84.20;;;;;;5135372;27;20538;-68
2023/04/20 09:16:31;;;;;;;3.92;3.17;;;8.90;84.30;;;;;;5135342;27;20226;-68
2023/04/20 09:19:02;;;;;;;3.70;3.10;;;8.90;83.80;;;;;;5135362;27;20272;-68
2023/04/20 09:21:33;;;;;;;4.60;3.20;;;8.80;84.30;;;;;;5135300;27;20195;-68
2023/04/20 09:24:05;;;;;;;4.15;3.75;;;8.80;83.80;;;;;;5134477;27;20661;-68
2023/04/20 09:26:33;;;;;;;4.78;3.30;;;8.80;84.90;;;;;;5135128;27;20188;-68
2023/04/20 09:29:04;;;;;;;3.28;2.60;;;8.70;84.90;;;;;;5135319;27;20230;-68
2023/04/20 09:31:36;;;;;;;4.78;3.28;;;8.70;85.80;;;;;;5135390;27;20219;-68
2023/04/20 09:34:04;;;;;;;3.17;2.50;;;8.80;84.50;;;;;;5134777;27;20192;-68
2023/04/20 09:36:41;;;;;;;3.50;2.22;;;8.70;84.10;;;;;;5134875;27;20236;-69
2023/04/20 09:39:10;;;;;;;3.70;2.20;;;8.60;84.40;;;;;;5135285;27;20305;-69
2023/04/20 09:41:43;;;;;;;4.47;3.15;;;8.60;84.30;;;;;;5134519;27;20282;-68
2023/04/20 09:44:13;;;;;;;4.10;2.80;;;8.60;83.10;;;;;;5134670;27;20223;-68
2023/04/20 09:46:44;;;;;;;3.97;3.13;;;8.50;83.60;;;;;;5134854;27;20223;-68
2023/04/20 09:49:15;;;;;;;4.50;3.05;;;8.40;83.40;;;;;;5134950;27;20610;-68
2023/04/20 09:51:45;;;;;;;4.35;3.63;;;8.20;83.90;;;;;;5134762;27;20223;-68
2023/04/20 09:54:16;;;;;;;3.65;2.92;;;8.10;85.20;;;;;;5134623;27;20196;-68
2023/04/20 09:56:49;;;;;;;5.68;4.20;;;8.10;85.20;;;;;;5134390;27;20188;-68
2023/04/20 09:59:33;;;;;;;3.95;3.25;;;8.10;85.00;;;;;;5134373;27;20276;-68
2023/04/20 10:02:13;;;;;;;4.10;3.17;;;8.00;86.10;;;;;;5134210;27;20184;-68
2023/04/20 10:04:53;;;;;;;4.82;3.25;;;8.00;87.30;;;;;;5134150;27;20278;-68
2023/04/20 10:07:26;;;;;;;3.95;2.70;;;8.00;87.00;;;;;;5134264;27;20183;-68
2023/04/20 10:10:07;;;;;;;3.90;2.80;;;8.00;88.30;;;;;;5134098;27;20188;-68
2023/04/20 10:12:46;;;;;;;4.25;3.63;;;8.10;88.40;;;;;;5134391;27;20188;-68
2023/04/20 10:15:18;;;;;;;4.65;3.72;;;8.20;87.20;;;;;;5133974;27;20212;-69
2023/04/20 10:17:48;;;;;;;4.78;3.63;;;8.40;86.90;;;;;;5134137;27;20192;-68
2023/04/20 10:20:23;;;;;;;5.30;4.05;;;8.60;86.50;;;;;;5134014;27;20212;-69
2023/04/20 10:22:53;;;;;;;3.58;2.55;;;8.80;86.30;;;;;;5134184;27;20223;-68
2023/04/20 10:25:23;;;;;;;3.70;3.05;;;8.90;85.60;;;;;;5133581;27;20230;-69
2023/04/20 10:27:58;;;;;;;4.45;2.67;;;9.00;84.50;;;;;;5134196;27;20279;-68
2023/04/20 10:30:29;;;;;;;4.10;2.80;;;9.10;84.20;;;;;;5133901;27;20634;-68
2023/04/20 10:33:09;;;;;;;2.70;2.22;;;9.30;83.60;;;;;;5133714;27;20665;-68
2023/04/20 10:35:45;;;;;;;4.93;3.00;;;9.30;82.70;;;;;;5133769;27;20191;-68
2023/04/20 10:38:14;;;;;;;3.97;2.25;;;9.40;81.60;;;;;;5133466;27;20183;-69
2023/04/20 10:41:05;;;;;;;3.65;2.90;;;9.40;81.40;;;;;;5133344;27;20226;-69
2023/04/20 10:43:37;;;;;;;2.95;1.98;;;9.40;83.20;;;;;;5133853;28;20200;-68
2023/04/20 10:46:14;;;;;;;4.32;3.60;;;9.40;82.60;;;;;;5133948;28;20191;-68
2023/04/20 10:48:53;;;;;;;5.03;3.13;;;9.50;83.00;;;;;;5133471;28;20662;-68
2023/04/20 10:51:25;;;;;;;5.18;2.55;;;9.60;82.90;;;;;;5133963;28;20218;-69
2023/04/20 10:54:04;;;;;;;3.35;2.63;;;9.70;82.30;;;;;;5133779;28;20199;-68
2023/04/20 10:56:42;;;;;;;3.38;2.70;;;9.70;81.10;;;;;;5133707;28;20246;-68
2023/04/20 10:59:10;;;;;;;4.68;3.00;;;9.70;80.50;;;;;;5133891;28;20271;-69
2023/04/20 11:01:37;;;;;;;4.40;2.58;;;9.70;80.80;;;;;;5133899;28;20188;-68
2023/04/20 11:04:04;;;;;;;3.88;3.30;;;9.80;80.00;;;;;;5133508;28;20191;-68
2023/04/20 11:06:33;;;;;;;3.72;2.50;;;9.80;79.80;;;;;;5133910;28;20227;-68
2023/04/20 11:09:00;;;;;;;4.05;2.80;;;9.90;79.50;;;;;;5133754;28;20638;-68
2023/04/20 11:11:29;;;;;;;3.63;2.00;;;10.10;79.80;;;;;;5133794;28;20264;-68
2023/04/20 11:14:07;;;;;;;4.20;2.47;;;10.20;77.40;;;;;;5133647;28;20223;-68
2023/04/20 11:16:35;;;;;;;3.20;2.30;;;10.20;77.10;;;;;;5131421;28;20316;-68
2023/04/20 11:19:03;;;;;;;3.35;2.45;;;10.30;77.90;;;;;;5131985;28;20551;-68
2023/04/20 11:21:37;;;;;;;3.72;2.75;;;10.40;78.10;;;;;;5133409;28;20292;-69
2023/04/20 11:24:06;;;;;;;3.97;2.85;;;10.60;77.80;;;;;;5128988;28;20215;-69
2023/04/20 11:26:41;;;;;;;3.53;2.35;;;10.80;77.40;;;;;;5132859;28;20679;-69
2023/04/20 11:29:08;;;;;;;3.40;2.70;;;11.00;75.40;;;;;;5133349;28;20183;-69
2023/04/20 11:31:35;;;;;;;3.00;2.17;;;11.10;74.70;;;;;;5131429;28;20188;-68
2023/04/20 11:34:02;;;;;;;3.70;3.15;;;11.20;75.50;;;;;;5121349;28;20228;-69
2023/04/20 11:36:30;;;;;;;4.03;2.70;;;11.40;76.80;;;;;;5121945;28;20229;-69
2023/04/20 11:39:11;;;;;;;3.20;2.63;;;11.50;74.90;;;;;;5131502;28;20219;-69
2023/04/20 11:41:41;;;;;;;2.70;1.90;;;11.60;73.60;;;;;;5131806;28;20274;-69
2023/04/20 11:44:08;;;;;;;2.80;1.90;;;11.50;72.30;;;;;;5128764;28;20814;-69
2023/04/20 11:46:36;;;;;;;3.00;2.50;;;11.30;71.70;;;;;;5133258;28;20260;-69
2023/04/20 11:49:04;;;;;;;3.40;2.67;;;11.20;72.10;;;;;;5136034;27;20534;-68
2023/04/20 11:51:31;;;;;;;4.43;2.88;;;11.00;72.40;;;;;;5136095;27;20219;-70
2023/04/20 11:53:59;;;;;;;4.95;3.28;;;11.00;73.90;;;;;;5136413;27;20571;-68
2023/04/20 11:56:26;;;;;;;4.07;2.90;;;10.90;75.00;;;;;;5136330;27;20282;-68
2023/04/20 11:58:56;;;;;;;2.60;1.80;;;11.00;74.90;;;;;;5136006;27;20179;-69
2023/04/20 12:01:23;;;;;;;2.65;1.77;;;11.20;75.10;;;;;;5133242;27;20211;-69
2023/04/20 12:03:51;;;;;;;3.17;2.47;;;11.30;74.00;;;;;;5136199;27;20227;-69
2023/04/20 12:06:18;;;;;;;3.50;2.38;;;11.40;73.70;;;;;;5136582;27;20549;-68
2023/04/20 12:08:46;;;;;;;5.57;3.65;;;11.40;74.10;;;;;;5136237;27;20534;-69
2023/04/20 12:11:15;;;;;;;6.22;3.22;;;11.30;74.20;;;;;;5136659;27;20187;-68
2023/04/20 12:13:42;;;;;;;8.35;4.82;;;11.30;74.40;;;;;;5136200;27;20241;-69
2023/04/20 12:16:10;;;;;;;3.05;2.13;;;11.20;74.40;;;;;;5136614;27;20307;-69
2023/04/20 12:18:40;;;;;;;3.10;2.53;;;11.10;74.10;;;;;;5136327;27;20237;-70
2023/04/20 12:21:07;;;;;;;4.50;2.63;;;11.00;73.90;;;;;;5136621;27;20262;-69
2023/04/20 12:23:35;;;;;;;3.10;2.40;;;11.10;75.00;;;;;;5136701;27;20294;-69
2023/04/20 12:26:02;;;;;;;4.57;2.40;;;11.10;75.00;;;;;;5136525;27;20296;-69
2023/04/20 12:28:29;;;;;;;3.03;2.13;;;11.20;72.40;;;;;;5136534;27;20192;-69
2023/04/20 12:30:56;;;;;;;3.65;3.25;;;11.20;72.60;;;;;;5136451;27;20278;-69
2023/04/20 12:33:24;;;;;;;3.20;2.30;;;11.30;74.30;;;;;;5136472;27;20274;-69
2023/04/20 12:35:52;;;;;;;3.92;2.55;;;11.40;73.00;;;;;;5136353;27;20274;-69
2023/04/20 12:38:18;;;;;;;2.85;2.05;;;11.40;72.30;;;;;;5136126;27;20268;-69
2023/04/20 12:40:45;;;;;;;4.05;2.50;;;11.50;73.60;;;;;;5135724;27;20306;-69
2023/04/20 12:43:12;;;;;;;3.22;2.25;;;11.60;71.70;;;;;;5135618;27;20691;-69
2023/04/20 12:45:39;;;;;;;2.90;2.30;;;11.50;71.70;;;;;;5135713;27;20619;-68
2023/04/20 12:48:06;;;;;;;3.22;1.92;;;11.50;72.00;;;;;;5135301;27;20187;-69
2023/04/20 12:50:35;;;;;;;5.50;3.35;;;11.40;69.80;;;;;;5135748;27;20215;-69
2023/04/20 12:53:02;;;;;;;5.60;2.65;;;11.30;70.50;;;;;;5135429;27;20597;-69
2023/04/20 12:55:29;;;;;;;3.13;2.05;;;11.30;72.20;;;;;;5135433;27;20614;-69
2023/04/20 12:57:56;;;;;;;3.70;2.50;;;11.20;72.40;;;;;;5135793;27;20638;-69
2023/04/20 13:00:23;;;;;;;2.70;1.90;;;11.10;71.80;;;;;;5134615;27;20561;-69
2023/04/20 13:02:50;;;;;;;3.38;2.60;;;11.00;72.70;;;;;;5135546;27;20665;-69
2023/04/20 13:05:18;;;;;;;2.83;1.95;;;11.10;73.00;;;;;;5135302;27;20291;-69
2023/04/20 13:07:46;;;;;;;3.22;2.40;;;11.00;72.40;;;;;;5135480;27;20275;-69